Terminal Aerodrome Forecast
Issued by NWS

Home | Current Version | Previous Version | Text Only | Print | Product List | Glossary On
Versions: 1 2 3 4 5 6 7 8 9 10 11 12 13 14 15 16 17 18 19 20 21 22 23 24 25 26 27 28 29 30 31 32 33 34 35 36 37 38
000
FTUS43 KDMX 250520
TAFFOD
TAF
KFOD 250520Z 2506/2606 26006KT P6SM SCT120
     FM250900 21005KT P6SM VCSH SCT090 BKN110
     FM251200 26006KT P6SM FEW150 FEW250
     FM252000 27008KT P6SM SCT030
     FM260100 29004KT P6SM SKC=

USA.gov is the U.S. government's official web portal to all federal, state and local government web resources and services.